createdAt,value
2023-03-03T00:00:44.974Z,19.00
2023-03-03T00:03:15.843Z,20.07
2023-03-03T00:05:42.690Z,19.97
2023-03-03T00:08:10.477Z,18.87
2023-03-03T00:10:37.947Z,18.23
2023-03-03T00:13:11.915Z,17.43
2023-03-03T00:15:38.554Z,16.93
2023-03-03T00:18:17.687Z,17.13
2023-03-03T00:20:55.378Z,18.90
2023-03-03T00:23:35.485Z,18.53
2023-03-03T00:26:03.505Z,16.73
2023-03-03T00:28:46.049Z,17.43
2023-03-03T00:31:19.272Z,18.30
2023-03-03T00:33:55.912Z,17.33
2023-03-03T00:36:31.729Z,18.07
2023-03-03T00:39:15.687Z,18.23
2023-03-03T00:41:42.501Z,15.73
2023-03-03T00:44:32.299Z,19.17
2023-03-03T00:47:12.406Z,16.77
2023-03-03T00:49:39.650Z,16.50
2023-03-03T00:52:14.613Z,18.10
2023-03-03T00:54:41.210Z,16.20
2023-03-03T00:57:08.189Z,17.00
2023-03-03T00:59:34.868Z,17.13
2023-03-03T01:02:01.507Z,18.40
2023-03-03T01:04:28.161Z,17.03
2023-03-03T01:06:54.981Z,14.97
2023-03-03T01:09:22.323Z,16.97
2023-03-03T01:11:49.690Z,16.37
2023-03-03T01:14:16.569Z,17.83
2023-03-03T01:16:43.236Z,15.53
2023-03-03T01:19:09.829Z,15.77
2023-03-03T01:21:36.443Z,16.03
2023-03-03T01:24:03.695Z,18.63
2023-03-03T01:26:31.465Z,17.17
2023-03-03T01:28:58.077Z,17.60
2023-03-03T01:31:24.696Z,16.63
2023-03-03T01:33:51.383Z,17.83
2023-03-03T01:36:26.941Z,15.60
2023-03-03T01:38:53.826Z,17.33
2023-03-03T01:41:21.086Z,17.40
2023-03-03T01:43:49.803Z,18.67
2023-03-03T01:46:29.841Z,17.80
2023-03-03T01:49:03.619Z,17.57
2023-03-03T01:51:33.516Z,17.77
2023-03-03T01:54:03.434Z,15.23
2023-03-03T01:56:32.051Z,19.13
2023-03-03T01:59:14.568Z,17.43
2023-03-03T02:01:41.380Z,17.77
2023-03-03T02:04:08.821Z,16.67
2023-03-03T02:06:37.973Z,16.33
2023-03-03T02:09:28.781Z,16.90
2023-03-03T02:11:59.567Z,14.93
2023-03-03T02:14:26.395Z,17.33
2023-03-03T02:16:53.055Z,16.70
2023-03-03T02:19:35.802Z,16.93
2023-03-03T02:22:02.661Z,18.70
2023-03-03T02:24:33.671Z,15.90
2023-03-03T02:27:00.323Z,17.93
2023-03-03T02:29:26.967Z,16.93
2023-03-03T02:31:53.712Z,16.13
2023-03-03T02:34:20.491Z,17.73
2023-03-03T02:36:47.158Z,21.93
2023-03-03T02:39:20.537Z,16.77
2023-03-03T02:41:51.863Z,16.63
2023-03-03T02:44:21.388Z,18.13
2023-03-03T02:46:49.478Z,16.33
2023-03-03T02:49:27.784Z,17.40
2023-03-03T02:51:54.874Z,19.07
2023-03-03T02:54:24.025Z,16.87
2023-03-03T02:56:50.650Z,20.00
2023-03-03T02:59:17.881Z,15.63
2023-03-03T03:01:45.118Z,16.20
2023-03-03T03:04:12.840Z,16.43
2023-03-03T03:06:40.225Z,16.73
2023-03-03T03:09:08.686Z,18.80
2023-03-03T03:11:35.885Z,17.60
2023-03-03T03:14:07.249Z,18.13
2023-03-03T03:16:34.564Z,16.60
2023-03-03T03:19:01.749Z,17.43
2023-03-03T03:21:28.534Z,16.67
2023-03-03T03:23:55.589Z,18.87
2023-03-03T03:26:22.507Z,16.07
2023-03-03T03:28:49.970Z,16.23
2023-03-03T03:31:17.593Z,16.97
2023-03-03T03:33:44.414Z,16.60
2023-03-03T03:36:11.650Z,18.43
2023-03-03T03:38:38.396Z,17.90
2023-03-03T03:41:06.386Z,17.33
2023-03-03T03:43:33.157Z,18.53
2023-03-03T03:45:59.843Z,17.70
2023-03-03T03:48:26.920Z,18.00
2023-03-03T03:50:53.594Z,17.77
2023-03-03T03:53:20.285Z,17.83
2023-03-03T03:55:47.639Z,17.03
2023-03-03T03:58:15.542Z,18.27
2023-03-03T04:00:42.994Z,18.00
2023-03-03T04:03:10.713Z,16.80
2023-03-03T04:05:37.625Z,17.10
2023-03-03T04:08:04.653Z,17.97
2023-03-03T04:10:31.301Z,17.50
2023-03-03T04:12:57.964Z,16.80
2023-03-03T04:15:27.320Z,18.30
2023-03-03T04:17:53.966Z,17.03
2023-03-03T04:20:20.666Z,16.47
2023-03-03T04:22:47.338Z,18.63
2023-03-03T04:25:16.053Z,17.80
2023-03-03T04:27:43.419Z,17.77
2023-03-03T04:30:11.569Z,17.87
2023-03-03T04:32:38.173Z,18.53
2023-03-03T04:35:08.547Z,20.10
2023-03-03T04:37:36.366Z,16.87
2023-03-03T04:40:04.390Z,16.20
2023-03-03T04:42:31.018Z,17.37
2023-03-03T04:44:57.683Z,16.07
2023-03-03T04:47:24.725Z,15.90
2023-03-03T04:49:51.383Z,18.40
2023-03-03T04:52:18.007Z,17.53
2023-03-03T04:54:44.721Z,17.10
2023-03-03T04:57:11.336Z,15.63
2023-03-03T04:59:38.203Z,16.40
2023-03-03T05:02:05.376Z,15.90
2023-03-03T05:04:33.113Z,17.50
2023-03-03T05:06:59.774Z,16.90
2023-03-03T05:09:26.488Z,16.47
2023-03-03T05:11:53.693Z,17.47
2023-03-03T05:14:20.741Z,16.67
2023-03-03T05:16:47.403Z,16.70
2023-03-03T05:19:16.667Z,17.20
2023-03-03T05:21:43.326Z,14.40
2023-03-03T05:24:11.017Z,17.23
2023-03-03T05:26:38.607Z,17.63
2023-03-03T05:29:05.920Z,16.93
2023-03-03T05:31:32.940Z,17.57
2023-03-03T05:33:59.890Z,18.00
2023-03-03T05:36:26.661Z,17.63
2023-03-03T05:38:53.330Z,17.87
2023-03-03T05:41:19.996Z,19.67
2023-03-03T05:43:46.620Z,16.53
2023-03-03T05:46:13.512Z,17.43
2023-03-03T05:48:40.293Z,17.00
2023-03-03T05:51:07.077Z,17.27
2023-03-03T05:53:33.878Z,16.47
2023-03-03T05:56:00.468Z,18.20
2023-03-03T05:58:27.164Z,18.27
2023-03-03T06:00:53.827Z,17.50
2023-03-03T06:03:20.601Z,19.87
2023-03-03T06:05:47.497Z,16.87
2023-03-03T06:08:14.160Z,17.50
2023-03-03T06:10:40.838Z,18.93
2023-03-03T06:13:07.541Z,19.47
2023-03-03T06:15:34.226Z,17.37
2023-03-03T06:18:00.919Z,16.97
2023-03-03T06:20:27.616Z,17.13
2023-03-03T06:22:54.271Z,19.00
2023-03-03T06:25:20.895Z,16.73
2023-03-03T06:27:48.587Z,18.27
2023-03-03T06:30:15.633Z,17.00
2023-03-03T06:32:42.407Z,17.43
2023-03-03T06:35:09.134Z,18.13
2023-03-03T06:37:35.829Z,19.03
2023-03-03T06:40:03.157Z,17.37
2023-03-03T06:42:29.814Z,17.77
2023-03-03T06:44:56.533Z,15.90
2023-03-03T06:47:23.331Z,15.93
2023-03-03T06:49:50.013Z,15.30
2023-03-03T06:52:24.556Z,15.50
2023-03-03T06:54:54.736Z,16.37
2023-03-03T06:57:29.808Z,17.23
2023-03-03T07:00:17.139Z,17.13
2023-03-03T07:02:43.848Z,17.37
2023-03-03T07:05:17.000Z,15.43
2023-03-03T07:07:44.606Z,15.87
2023-03-03T07:10:28.915Z,19.37
2023-03-03T07:13:01.198Z,16.00
2023-03-03T07:15:35.153Z,16.37
2023-03-03T07:18:02.475Z,16.97
2023-03-03T07:20:33.700Z,16.73
2023-03-03T07:23:00.518Z,13.93
2023-03-03T07:25:31.166Z,15.60
2023-03-03T07:28:23.075Z,17.13
2023-03-03T07:30:50.059Z,14.23
2023-03-03T07:33:27.267Z,16.33
2023-03-03T07:35:56.206Z,14.80
2023-03-03T07:38:42.651Z,16.10
2023-03-03T07:41:15.424Z,15.60
2023-03-03T07:43:54.589Z,14.57
2023-03-03T07:46:43.881Z,15.53
2023-03-03T07:49:36.827Z,13.47
2023-03-03T07:52:21.474Z,14.33
2023-03-03T07:54:48.140Z,13.67
2023-03-03T07:57:17.525Z,15.60
2023-03-03T08:00:13.722Z,15.03
2023-03-03T08:03:00.883Z,14.43
2023-03-03T08:05:44.621Z,12.87
2023-03-03T08:08:16.331Z,14.17
2023-03-03T08:10:51.229Z,14.33
2023-03-03T08:13:21.113Z,15.13
2023-03-03T08:16:02.707Z,13.93
2023-03-03T08:18:34.930Z,14.33
2023-03-03T08:21:04.583Z,14.90
2023-03-03T08:23:31.297Z,14.50
2023-03-03T08:25:57.967Z,15.80
2023-03-03T08:28:24.654Z,15.70
2023-03-03T08:30:54.421Z,15.40
2023-03-03T08:33:27.068Z,13.30
2023-03-03T08:35:53.718Z,13.53
2023-03-03T08:38:21.867Z,15.90
2023-03-03T08:40:49.192Z,14.20
2023-03-03T08:43:18.284Z,14.80
2023-03-03T08:45:46.011Z,15.23
2023-03-03T08:48:12.881Z,15.50
2023-03-03T08:50:39.964Z,17.23
2023-03-03T08:53:07.134Z,16.13
2023-03-03T08:55:33.860Z,13.53
2023-03-03T08:58:00.513Z,14.37
2023-03-03T09:00:27.743Z,16.27
2023-03-03T09:02:54.660Z,13.93
2023-03-03T09:05:22.320Z,14.40
2023-03-03T09:07:51.135Z,15.23
2023-03-03T09:10:22.674Z,15.43
2023-03-03T09:12:49.466Z,13.83
2023-03-03T09:15:21.564Z,13.20
2023-03-03T09:17:48.463Z,14.17
2023-03-03T09:20:28.088Z,13.93
2023-03-03T09:22:55.436Z,14.40
2023-03-03T09:25:36.124Z,13.97
2023-03-03T09:28:04.225Z,14.73
2023-03-03T09:30:35.887Z,16.17
2023-03-03T09:33:19.644Z,14.47
2023-03-03T09:35:48.627Z,14.13
2023-03-03T09:38:44.906Z,15.87
2023-03-03T09:41:36.388Z,13.63
2023-03-03T09:44:21.939Z,14.67
2023-03-03T09:47:27.681Z,13.00
2023-03-03T09:50:19.570Z,13.67
2023-03-03T09:53:09.122Z,14.60
2023-03-03T09:55:47.822Z,14.20
2023-03-03T09:58:34.557Z,15.30
2023-03-03T10:01:43.467Z,14.87
2023-03-03T10:04:47.880Z,14.13
2023-03-03T10:07:54.475Z,14.60
2023-03-03T10:10:40.106Z,14.70
2023-03-03T10:13:29.769Z,15.53
2023-03-03T10:16:14.388Z,13.73
2023-03-03T10:19:02.298Z,18.77
2023-03-03T10:21:39.819Z,12.77
2023-03-03T10:24:28.647Z,14.80
2023-03-03T10:27:24.171Z,12.30
2023-03-03T10:30:07.521Z,15.07
2023-03-03T10:32:42.406Z,17.43
2023-03-03T10:35:31.157Z,16.00
2023-03-03T10:38:07.086Z,17.63
2023-03-03T10:40:59.255Z,15.93
2023-03-03T10:43:33.625Z,16.30
2023-03-03T10:46:34.268Z,14.03
2023-03-03T10:49:20.286Z,14.97
2023-03-03T10:52:24.997Z,15.50
2023-03-03T10:55:16.384Z,17.10
2023-03-03T10:57:54.989Z,18.57
2023-03-03T11:00:29.994Z,18.47
2023-03-03T11:03:28.515Z,19.47
2023-03-03T11:05:58.994Z,20.93
2023-03-03T11:08:41.381Z,19.23
2023-03-03T11:11:41.543Z,16.27
2023-03-03T11:14:33.069Z,16.13
2023-03-03T11:17:12.026Z,17.03
2023-03-03T11:19:45.194Z,19.10
2023-03-03T11:22:15.054Z,19.37
2023-03-03T11:25:01.226Z,20.40
2023-03-03T11:27:37.274Z,18.87
2023-03-03T11:30:30.042Z,16.43
2023-03-03T11:33:15.286Z,17.30
2023-03-03T11:36:09.643Z,20.30
2023-03-03T11:38:47.471Z,18.90
2023-03-03T11:41:38.193Z,16.07
2023-03-03T11:44:29.211Z,18.37
2023-03-03T11:47:05.121Z,17.93
2023-03-03T11:49:39.726Z,16.53
2023-03-03T11:52:26.449Z,17.93
2023-03-03T11:55:13.624Z,15.47
2023-03-03T11:58:12.197Z,17.37
2023-03-03T12:00:50.893Z,16.00
2023-03-03T12:03:29.283Z,15.87
2023-03-03T12:06:24.861Z,15.93
2023-03-03T12:08:57.391Z,15.50
2023-03-03T12:11:26.777Z,15.47
2023-03-03T12:14:02.372Z,17.60
2023-03-03T12:16:39.966Z,18.17
2023-03-03T12:19:50.858Z,15.73
2023-03-03T12:22:35.746Z,16.77
2023-03-03T12:25:33.641Z,18.40
2023-03-03T12:28:19.182Z,16.53
2023-03-03T12:31:09.482Z,17.57
2023-03-03T12:33:53.115Z,16.77
2023-03-03T12:36:36.107Z,16.47
2023-03-03T12:39:13.668Z,17.17
2023-03-03T12:41:56.153Z,14.73
2023-03-03T12:44:26.877Z,18.53
2023-03-03T12:47:01.032Z,16.97
2023-03-03T12:49:48.054Z,18.57
2023-03-03T12:52:21.708Z,18.67
2023-03-03T12:55:06.324Z,18.63
2023-03-03T12:57:47.768Z,16.87
2023-03-03T13:00:22.047Z,16.73
2023-03-03T13:03:07.060Z,18.70
2023-03-03T13:05:49.260Z,16.53
2023-03-03T13:08:54.771Z,16.23
2023-03-03T13:11:36.178Z,18.70
2023-03-03T13:14:21.380Z,17.33
2023-03-03T13:17:17.369Z,18.57
2023-03-03T13:20:00.185Z,17.30
2023-03-03T13:23:05.041Z,17.37
2023-03-03T13:29:28.541Z,15.77
2023-03-03T13:32:08.991Z,17.07
2023-03-03T13:34:58.161Z,15.20
2023-03-03T13:37:31.690Z,15.00
2023-03-03T13:40:18.405Z,14.53
2023-03-03T13:42:57.254Z,14.27
2023-03-03T13:45:25.545Z,15.70
2023-03-03T13:48:17.143Z,15.67
2023-03-03T13:50:54.267Z,14.87
2023-03-03T13:53:40.305Z,14.17
2023-03-03T13:56:21.260Z,16.97
2023-03-03T13:59:29.749Z,15.83
2023-03-03T14:02:07.248Z,15.80
2023-03-03T14:04:54.187Z,14.90
2023-03-03T14:07:26.750Z,16.07
2023-03-03T14:10:10.005Z,14.90
2023-03-03T14:12:42.714Z,16.07
2023-03-03T14:15:26.731Z,16.50
2023-03-03T14:18:24.919Z,13.70
2023-03-03T14:20:56.387Z,15.27
2023-03-03T14:23:57.344Z,15.57
2023-03-03T14:26:24.148Z,15.43
2023-03-03T14:28:53.117Z,16.83
2023-03-03T14:31:31.701Z,17.13
2023-03-03T14:34:00.836Z,16.87
2023-03-03T14:36:33.130Z,15.37
2023-03-03T14:39:00.330Z,16.30
2023-03-03T14:41:41.638Z,18.23
2023-03-03T14:44:29.997Z,18.53
2023-03-03T14:47:09.002Z,17.37
2023-03-03T14:49:38.481Z,17.13
2023-03-03T14:52:17.534Z,17.43
2023-03-03T14:54:49.386Z,18.47
2023-03-03T14:57:20.619Z,18.17
2023-03-03T14:59:59.485Z,17.13
2023-03-03T15:02:31.721Z,17.27
2023-03-03T15:05:18.953Z,18.47
2023-03-03T15:07:47.935Z,18.83
2023-03-03T15:10:31.343Z,17.47
2023-03-03T15:12:58.338Z,16.70
2023-03-03T15:15:27.038Z,18.33
2023-03-03T15:17:59.253Z,17.70
2023-03-03T15:20:41.796Z,18.33
2023-03-03T15:23:27.198Z,15.37
2023-03-03T15:26:05.355Z,15.90
2023-03-03T15:29:13.813Z,16.73
2023-03-03T15:32:17.030Z,16.40
2023-03-03T15:34:48.951Z,17.03
2023-03-03T15:37:50.600Z,16.10
2023-03-03T15:40:17.293Z,16.77
2023-03-03T15:43:19.904Z,16.67
2023-03-03T15:46:03.021Z,15.80
2023-03-03T15:48:48.553Z,16.63
2023-03-03T15:51:42.699Z,15.40
2023-03-03T15:54:22.075Z,15.10
2023-03-03T15:56:58.340Z,15.37
2023-03-03T16:00:03.084Z,18.40
2023-03-03T16:02:48.949Z,15.50
2023-03-03T16:05:23.020Z,17.07
2023-03-03T16:07:54.207Z,13.73
2023-03-03T16:10:38.647Z,17.40
2023-03-03T16:13:29.605Z,13.50
2023-03-03T16:16:12.289Z,14.30
2023-03-03T16:19:19.137Z,16.03
2023-03-03T16:22:22.403Z,14.27
2023-03-03T16:25:30.241Z,14.27
2023-03-03T16:27:59.805Z,15.17
2023-03-03T16:30:44.067Z,14.40
2023-03-03T16:33:18.475Z,17.40
2023-03-03T16:35:59.049Z,16.23
2023-03-03T16:38:32.120Z,15.83
2023-03-03T16:41:00.373Z,16.83
2023-03-03T16:43:39.163Z,16.77
2023-03-03T16:46:29.270Z,14.57
2023-03-03T16:49:03.734Z,15.23
2023-03-03T16:51:57.065Z,14.77
2023-03-03T16:54:27.014Z,15.63
2023-03-03T16:57:38.508Z,15.37
2023-03-03T17:00:20.033Z,16.30
2023-03-03T17:03:18.080Z,14.17
2023-03-03T17:05:57.854Z,14.70
2023-03-03T17:08:51.968Z,16.47
2023-03-03T17:11:43.761Z,15.43
2023-03-03T17:14:19.343Z,16.47
2023-03-03T17:17:32.593Z,17.40
2023-03-03T17:20:20.963Z,15.40
2023-03-03T17:22:47.573Z,15.50
2023-03-03T17:25:50.367Z,17.03
2023-03-03T17:31:24.512Z,16.23
2023-03-03T17:34:00.318Z,16.90
2023-03-03T17:36:33.143Z,15.43
2023-03-03T17:39:32.641Z,16.67
2023-03-03T17:42:05.284Z,20.97
2023-03-03T17:44:57.889Z,16.73
2023-03-03T17:47:56.589Z,17.17
2023-03-03T17:50:45.118Z,17.07
2023-03-03T17:53:39.505Z,17.83
2023-03-03T17:56:32.393Z,18.90
2023-03-03T17:59:38.193Z,18.73
2023-03-03T18:02:45.525Z,19.07
2023-03-03T18:05:43.505Z,17.97
2023-03-03T18:08:43.608Z,20.50
2023-03-03T18:11:21.256Z,17.07
2023-03-03T18:13:56.785Z,18.17
2023-03-03T18:16:33.356Z,17.77
2023-03-03T18:19:49.400Z,18.23
2023-03-03T18:22:20.583Z,20.03
2023-03-03T18:24:50.180Z,18.50
2023-03-03T18:27:20.098Z,19.03
2023-03-03T18:30:37.443Z,20.17
2023-03-03T18:33:10.014Z,19.10
2023-03-03T18:35:41.323Z,19.83
2023-03-03T18:38:16.833Z,19.53
2023-03-03T18:41:03.738Z,18.03
2023-03-03T18:43:45.854Z,18.43
2023-03-03T18:46:22.740Z,19.20
2023-03-03T18:48:57.653Z,19.77
2023-03-03T18:51:39.756Z,18.73
2023-03-03T18:54:12.482Z,18.53
2023-03-03T18:56:50.534Z,19.33
2023-03-03T18:59:35.906Z,18.83
2023-03-03T19:02:24.359Z,21.30
2023-03-03T19:05:13.831Z,17.43
2023-03-03T19:07:40.510Z,19.07
2023-03-03T19:10:22.284Z,18.90
2023-03-03T19:12:54.237Z,19.53
2023-03-03T19:15:30.240Z,20.87
2023-03-03T19:18:21.548Z,18.40
2023-03-03T19:21:20.081Z,19.57
2023-03-03T19:23:52.650Z,19.43
2023-03-03T19:26:29.340Z,19.73
2023-03-03T19:29:00.629Z,20.47
2023-03-03T19:31:51.133Z,19.80
2023-03-03T19:34:33.813Z,19.67
2023-03-03T19:37:03.098Z,21.00
2023-03-03T19:39:42.683Z,22.30
2023-03-03T19:42:23.193Z,21.77
2023-03-03T19:44:52.648Z,20.57
2023-03-03T19:47:44.923Z,21.93
2023-03-03T19:50:34.733Z,22.37
2023-03-03T19:53:16.935Z,25.07
2023-03-03T19:55:52.200Z,26.90
2023-03-03T19:58:42.101Z,27.93
2023-03-03T20:01:18.191Z,31.10
2023-03-03T20:04:16.634Z,28.23
2023-03-03T20:06:56.747Z,28.17
2023-03-03T20:09:31.440Z,27.33
2023-03-03T20:12:07.455Z,29.67
2023-03-03T20:14:46.238Z,31.30
2023-03-03T20:17:32.173Z,28.70
2023-03-03T20:20:19.054Z,30.77
2023-03-03T20:22:55.373Z,33.00
2023-03-03T20:25:25.576Z,29.10
2023-03-03T20:28:01.951Z,29.53
2023-03-03T20:30:51.539Z,28.70
2023-03-03T20:33:21.851Z,29.33
2023-03-03T20:35:51.179Z,27.67
2023-03-03T20:38:39.628Z,26.23
2023-03-03T20:41:38.381Z,26.00
2023-03-03T20:44:33.866Z,26.70
2023-03-03T20:47:06.156Z,24.50
2023-03-03T20:49:54.394Z,25.97
2023-03-03T20:52:35.776Z,25.83
2023-03-03T20:55:23.282Z,28.23
2023-03-03T20:58:17.499Z,26.00
2023-03-03T21:01:10.677Z,23.37
2023-03-03T21:03:41.849Z,21.63
2023-03-03T21:06:19.584Z,23.50
2023-03-03T21:08:48.508Z,22.67
2023-03-03T21:11:18.570Z,22.83
2023-03-03T21:13:47.838Z,22.23
2023-03-03T21:16:28.564Z,21.13
2023-03-03T21:19:05.742Z,22.30
2023-03-03T21:21:35.493Z,23.70
2023-03-03T21:24:02.348Z,20.97
2023-03-03T21:26:56.247Z,21.10
2023-03-03T21:29:27.692Z,23.43
2023-03-03T21:31:55.425Z,21.53
2023-03-03T21:34:29.325Z,19.97
2023-03-03T21:36:57.726Z,20.57
2023-03-03T21:39:31.981Z,21.43
2023-03-03T21:42:06.426Z,18.70
2023-03-03T21:44:46.861Z,19.73
2023-03-03T21:47:15.443Z,20.17
2023-03-03T21:49:43.516Z,20.50
2023-03-03T21:52:11.516Z,19.53
2023-03-03T21:54:38.457Z,19.63
2023-03-03T21:57:05.160Z,20.70
2023-03-03T21:59:31.932Z,21.23
2023-03-03T22:01:59.064Z,20.93
2023-03-03T22:04:26.285Z,19.10
2023-03-03T22:06:53.110Z,19.83
2023-03-03T22:09:20.555Z,18.70
2023-03-03T22:11:47.481Z,19.23
2023-03-03T22:14:14.294Z,16.83
2023-03-03T22:16:41.210Z,18.27
2023-03-03T22:19:11.300Z,18.50
2023-03-03T22:21:39.522Z,18.77
2023-03-03T22:24:07.276Z,16.87
2023-03-03T22:26:34.386Z,18.70
2023-03-03T22:29:01.218Z,19.33
2023-03-03T22:31:27.900Z,18.23
2023-03-03T22:33:54.632Z,23.27
2023-03-03T22:36:21.508Z,21.43
2023-03-03T22:38:48.627Z,22.90
2023-03-03T22:41:16.238Z,21.00
2023-03-03T22:43:43.058Z,20.73
2023-03-03T22:46:10.293Z,21.27
2023-03-03T22:48:37.638Z,20.13
2023-03-03T22:51:04.581Z,25.47
2023-03-03T22:53:31.230Z,22.27
2023-03-03T22:55:57.889Z,20.13
2023-03-03T22:58:27.285Z,21.53
2023-03-03T23:00:54.388Z,18.97
2023-03-03T23:03:21.533Z,19.93
2023-03-03T23:05:51.600Z,19.40
2023-03-03T23:08:19.429Z,19.67
2023-03-03T23:10:46.609Z,20.27
2023-03-03T23:13:13.841Z,20.43
2023-03-03T23:15:40.490Z,18.63
2023-03-03T23:18:07.415Z,20.90
2023-03-03T23:20:34.130Z,18.43
2023-03-03T23:23:01.100Z,18.80
2023-03-03T23:25:28.765Z,19.23
2023-03-03T23:27:55.477Z,18.77
2023-03-03T23:30:22.227Z,20.60
2023-03-03T23:32:49.216Z,18.30
2023-03-03T23:35:16.391Z,19.13
2023-03-03T23:37:43.028Z,19.07
2023-03-03T23:40:10.718Z,19.67
2023-03-03T23:42:37.302Z,18.30
2023-03-03T23:45:04.418Z,19.73
2023-03-03T23:47:31.406Z,18.73
2023-03-03T23:49:58.118Z,17.20
2023-03-03T23:52:24.750Z,17.83
2023-03-03T23:54:52.918Z,17.53
2023-03-03T23:57:19.964Z,19.10
2023-03-03T23:59:46.573Z,18.20
